createdAt,value
2019-03-18T00:00:45.436Z,11.33
2019-03-18T00:03:13.918Z,13.23
2019-03-18T00:05:42.517Z,13.33
2019-03-18T00:08:11.214Z,11.57
2019-03-18T00:10:39.672Z,13.97
2019-03-18T00:13:08.358Z,13.97
2019-03-18T00:15:37.065Z,13.03
2019-03-18T00:18:05.522Z,13.17
2019-03-18T00:20:33.881Z,16.30
2019-03-18T00:23:02.299Z,12.30
2019-03-18T00:25:30.953Z,14.97
2019-03-18T00:27:59.330Z,17.90
2019-03-18T00:30:27.851Z,16.00
2019-03-18T00:32:56.302Z,17.03
2019-03-18T00:35:25.381Z,13.17
2019-03-18T00:37:54.021Z,10.23
2019-03-18T00:40:22.455Z,15.07
2019-03-18T00:42:52.301Z,13.33
2019-03-18T00:45:21.087Z,12.47
2019-03-18T00:47:50.537Z,11.23
2019-03-18T00:50:19.242Z,16.17
2019-03-18T00:52:47.948Z,17.50
2019-03-18T00:55:16.194Z,12.37
2019-03-18T00:57:44.822Z,14.07
2019-03-18T01:00:13.470Z,14.97
2019-03-18T01:02:42.242Z,15.13
2019-03-18T01:05:10.934Z,11.83
2019-03-18T01:07:39.347Z,14.43
2019-03-18T01:10:10.209Z,17.67
2019-03-18T01:12:38.863Z,10.53
2019-03-18T01:15:29.362Z,15.17
2019-03-18T01:17:58.151Z,14.53
2019-03-18T01:20:26.809Z,14.83
2019-03-18T01:22:55.289Z,16.17
2019-03-18T01:25:24.122Z,15.90
2019-03-18T01:27:52.671Z,12.57
2019-03-18T01:30:21.041Z,13.40
2019-03-18T01:32:49.646Z,14.50
2019-03-18T01:35:18.293Z,16.00
2019-03-18T01:37:47.071Z,13.93
2019-03-18T01:40:15.696Z,16.30
2019-03-18T01:42:44.565Z,17.13
2019-03-18T01:45:13.145Z,13.23
2019-03-18T01:47:41.789Z,17.03
2019-03-18T01:50:10.438Z,18.60
2019-03-18T01:52:39.113Z,16.47
2019-03-18T01:55:08.015Z,17.67
2019-03-18T01:57:36.456Z,19.10
2019-03-18T02:00:05.276Z,15.03
2019-03-18T02:02:33.962Z,16.37
2019-03-18T02:05:02.421Z,19.20
2019-03-18T02:07:31.243Z,16.47
2019-03-18T02:10:00.025Z,19.70
2019-03-18T02:12:28.803Z,16.53
2019-03-18T02:14:57.286Z,16.47
2019-03-18T02:17:25.991Z,18.67
2019-03-18T02:19:54.245Z,18.77
2019-03-18T02:22:22.926Z,17.63
2019-03-18T02:24:52.251Z,12.87
2019-03-18T02:27:20.911Z,18.50
2019-03-18T02:29:49.293Z,18.57
2019-03-18T02:32:17.812Z,16.80
2019-03-18T02:34:46.270Z,13.63
2019-03-18T02:37:15.052Z,23.10
2019-03-18T02:39:43.663Z,19.13
2019-03-18T02:42:12.395Z,20.73
2019-03-18T02:44:41.102Z,15.30
2019-03-18T02:47:09.613Z,15.20
2019-03-18T02:49:38.170Z,16.30
2019-03-18T02:52:06.650Z,15.67
2019-03-18T02:54:35.526Z,17.80
2019-03-18T02:57:04.002Z,18.27
2019-03-18T02:59:32.489Z,17.07
2019-03-18T03:02:01.309Z,18.40
2019-03-18T03:04:29.954Z,17.50
2019-03-18T03:06:58.547Z,21.20
2019-03-18T03:09:27.361Z,16.87
2019-03-18T03:11:55.930Z,19.03
2019-03-18T03:14:24.717Z,18.97
2019-03-18T03:16:53.453Z,17.30
2019-03-18T03:19:22.087Z,18.00
2019-03-18T03:21:50.770Z,16.63
2019-03-18T03:24:19.271Z,16.10
2019-03-18T03:26:47.616Z,15.33
2019-03-18T03:29:16.194Z,19.23
2019-03-18T03:31:44.716Z,22.93
2019-03-18T03:34:14.404Z,17.70
2019-03-18T03:36:43.272Z,13.80
2019-03-18T03:39:11.578Z,17.33
2019-03-18T03:41:40.248Z,15.93
2019-03-18T03:44:08.962Z,21.07
2019-03-18T03:46:43.735Z,20.67
2019-03-18T03:49:07.848Z,22.73
2019-03-18T03:51:36.721Z,16.87
2019-03-18T03:54:05.395Z,18.63
2019-03-18T03:56:33.779Z,14.67
2019-03-18T03:59:02.384Z,21.10
2019-03-18T04:01:31.186Z,19.17
2019-03-18T04:04:00.147Z,17.07
2019-03-18T04:06:29.045Z,20.50
2019-03-18T04:08:57.861Z,20.37
2019-03-18T04:11:26.609Z,22.60
2019-03-18T04:13:54.885Z,17.73
2019-03-18T04:16:23.600Z,21.87
2019-03-18T04:18:52.068Z,26.30
2019-03-18T04:21:20.920Z,18.90
2019-03-18T04:23:49.547Z,17.53
2019-03-18T04:26:18.231Z,19.50
2019-03-18T04:28:46.913Z,18.90
2019-03-18T04:31:15.713Z,20.43
2019-03-18T04:33:44.490Z,18.70
2019-03-18T04:36:13.167Z,17.43
2019-03-18T04:38:43.081Z,19.63
2019-03-18T04:41:11.554Z,20.87
2019-03-18T04:43:40.265Z,20.13
2019-03-18T04:46:08.978Z,20.27
2019-03-18T04:48:37.830Z,15.97
2019-03-18T04:51:06.322Z,19.13
2019-03-18T04:53:35.233Z,20.33
2019-03-18T04:56:03.582Z,17.30
2019-03-18T04:58:32.369Z,20.03
2019-03-18T05:01:01.084Z,18.83
2019-03-18T05:03:29.537Z,18.90
2019-03-18T05:05:57.814Z,16.63
2019-03-18T05:08:26.529Z,25.00
2019-03-18T05:10:54.958Z,18.90
2019-03-18T05:13:26.337Z,20.87
2019-03-18T05:15:53.910Z,19.77
2019-03-18T05:18:22.665Z,21.83
2019-03-18T05:20:51.561Z,25.63
2019-03-18T05:23:20.273Z,21.63
2019-03-18T05:25:48.934Z,20.97
2019-03-18T05:28:17.298Z,21.27
2019-03-18T05:30:45.833Z,22.97
2019-03-18T05:33:14.374Z,16.17
2019-03-18T05:35:43.061Z,14.30
2019-03-18T05:38:11.574Z,18.83
2019-03-18T05:40:39.934Z,18.27
2019-03-18T05:43:08.745Z,21.97
2019-03-18T05:45:37.444Z,22.20
2019-03-18T05:48:06.079Z,20.10
2019-03-18T05:50:34.750Z,22.30
2019-03-18T05:53:03.630Z,24.40
2019-03-18T05:55:32.538Z,23.73
2019-03-18T05:58:01.803Z,24.30
2019-03-18T06:00:30.376Z,21.53
2019-03-18T06:02:59.010Z,22.93
2019-03-18T06:05:27.453Z,25.17
2019-03-18T06:07:55.904Z,24.17
2019-03-18T06:10:24.957Z,21.17
2019-03-18T06:12:53.329Z,18.90
2019-03-18T06:15:22.065Z,21.50
2019-03-18T06:17:52.800Z,21.77
2019-03-18T06:20:21.610Z,22.57
2019-03-18T06:22:50.987Z,20.53
2019-03-18T06:25:19.960Z,22.00
2019-03-18T06:27:49.430Z,20.83
2019-03-18T06:30:18.074Z,23.97
2019-03-18T06:32:46.921Z,27.13
2019-03-18T06:35:16.042Z,24.60
2019-03-18T06:37:45.199Z,24.57
2019-03-18T06:40:14.818Z,26.03
2019-03-18T06:42:45.388Z,21.97
2019-03-18T06:45:14.041Z,25.10
2019-03-18T06:47:42.527Z,23.47
2019-03-18T06:50:12.706Z,23.60
2019-03-18T06:52:41.596Z,22.23
2019-03-18T06:55:10.114Z,21.80
2019-03-18T06:57:38.939Z,24.43
2019-03-18T07:00:08.191Z,24.47
2019-03-18T07:02:37.165Z,23.57
2019-03-18T07:05:06.020Z,23.40
2019-03-18T07:07:34.645Z,26.63
2019-03-18T07:10:03.550Z,25.23
2019-03-18T07:12:32.279Z,23.90
2019-03-18T07:15:00.927Z,24.70
2019-03-18T07:17:29.626Z,24.50
2019-03-18T07:19:58.328Z,22.13
2019-03-18T07:22:27.003Z,20.93
2019-03-18T07:24:55.680Z,25.93
2019-03-18T07:27:24.099Z,19.33
2019-03-18T07:29:52.839Z,20.40
2019-03-18T07:32:21.311Z,20.27
2019-03-18T07:34:50.025Z,26.83
2019-03-18T07:37:18.723Z,18.77
2019-03-18T07:39:47.183Z,21.77
2019-03-18T07:42:15.877Z,23.57
2019-03-18T07:44:44.321Z,21.73
2019-03-18T07:47:18.892Z,21.67
2019-03-18T07:49:47.625Z,23.60
2019-03-18T07:52:16.316Z,20.17
2019-03-18T07:54:45.040Z,21.10
2019-03-18T07:57:13.726Z,19.37
2019-03-18T07:59:42.163Z,25.20
2019-03-18T08:02:10.176Z,23.97
2019-03-18T08:04:38.332Z,20.37
2019-03-18T08:07:06.403Z,19.80
2019-03-18T08:09:34.838Z,18.97
2019-03-18T08:12:02.638Z,23.53
2019-03-18T08:14:30.656Z,19.57
2019-03-18T08:16:59.325Z,19.80
2019-03-18T08:19:28.916Z,20.47
2019-03-18T08:21:57.489Z,21.00
2019-03-18T08:24:26.198Z,16.03
2019-03-18T08:26:54.852Z,18.27
2019-03-18T08:29:23.239Z,18.27
2019-03-18T08:31:51.749Z,21.70
2019-03-18T08:34:20.286Z,21.33
2019-03-18T08:36:48.988Z,17.03
2019-03-18T08:39:17.493Z,19.63
2019-03-18T08:41:45.860Z,25.57
2019-03-18T08:44:14.619Z,21.10
2019-03-18T08:46:43.336Z,21.47
2019-03-18T08:49:11.994Z,18.97
2019-03-18T08:51:40.673Z,17.13
2019-03-18T08:54:09.460Z,25.90
2019-03-18T08:56:38.253Z,19.37
2019-03-18T08:59:06.934Z,19.27
2019-03-18T09:01:35.723Z,22.60
2019-03-18T09:04:04.511Z,22.47
2019-03-18T09:06:33.226Z,19.37
2019-03-18T09:09:02.230Z,24.67
2019-03-18T09:11:32.204Z,23.70
2019-03-18T09:14:00.901Z,18.27
2019-03-18T09:16:29.389Z,19.03
2019-03-18T09:19:08.074Z,16.33
2019-03-18T09:21:28.595Z,17.50
2019-03-18T09:23:57.020Z,21.00
2019-03-18T09:26:25.361Z,19.47
2019-03-18T09:28:53.772Z,20.10
2019-03-18T09:31:22.631Z,21.77
2019-03-18T09:33:51.409Z,23.57
2019-03-18T09:36:19.770Z,18.23
2019-03-18T09:38:48.301Z,20.50
2019-03-18T09:41:16.852Z,17.33
2019-03-18T09:43:45.530Z,22.00
2019-03-18T09:46:14.258Z,21.87
2019-03-18T09:48:42.902Z,18.30
2019-03-18T09:51:13.015Z,20.33
2019-03-18T09:53:41.607Z,16.40
2019-03-18T09:56:10.039Z,16.37
2019-03-18T09:58:38.849Z,18.83
2019-03-18T10:01:07.657Z,21.67
2019-03-18T10:03:36.451Z,18.77
2019-03-18T10:06:05.140Z,17.60
2019-03-18T10:08:33.858Z,22.03
2019-03-18T10:11:02.509Z,23.30
2019-03-18T10:13:31.191Z,17.90
2019-03-18T10:15:59.919Z,38.97
2019-03-18T10:18:28.576Z,26.20
2019-03-18T10:20:57.056Z,16.57
2019-03-18T10:23:25.786Z,46.77
2019-03-18T10:25:54.289Z,17.30
2019-03-18T10:28:24.147Z,17.40
2019-03-18T10:30:52.861Z,19.63
2019-03-18T10:33:21.518Z,17.43
2019-03-18T10:35:50.213Z,15.80
2019-03-18T10:38:19.146Z,17.77
2019-03-18T10:40:47.984Z,20.57
2019-03-18T10:43:16.872Z,15.90
2019-03-18T10:45:45.591Z,19.10
2019-03-18T10:48:14.243Z,16.73
2019-03-18T10:50:42.622Z,17.97
2019-03-18T10:53:11.241Z,19.33
2019-03-18T10:55:40.086Z,16.40
2019-03-18T10:58:08.771Z,17.87
2019-03-18T11:00:46.903Z,21.83
2019-03-18T11:03:16.592Z,19.47
2019-03-18T11:05:45.078Z,18.03
2019-03-18T11:08:13.791Z,17.97
2019-03-18T11:10:42.225Z,17.00
2019-03-18T11:13:10.716Z,16.20
2019-03-18T11:15:39.422Z,19.20
2019-03-18T11:18:08.088Z,15.17
2019-03-18T11:20:36.786Z,17.07
2019-03-18T11:23:05.192Z,16.67
2019-03-18T11:25:33.535Z,16.17
2019-03-18T11:28:02.206Z,14.53
2019-03-18T11:30:30.956Z,17.23
2019-03-18T11:32:59.477Z,19.20
2019-03-18T11:35:28.272Z,17.33
2019-03-18T11:37:57.000Z,16.60
2019-03-18T11:40:25.795Z,20.60
2019-03-18T11:42:54.317Z,18.10
2019-03-18T11:45:23.054Z,17.90
2019-03-18T11:47:52.118Z,18.40
2019-03-18T11:50:20.360Z,15.57
2019-03-18T11:52:51.384Z,14.17
2019-03-18T11:55:21.449Z,13.50
2019-03-18T11:57:50.127Z,19.00
2019-03-18T12:00:19.258Z,17.50
2019-03-18T12:02:47.897Z,18.27
2019-03-18T12:05:16.611Z,13.90
2019-03-18T12:07:45.007Z,15.67
2019-03-18T12:10:15.395Z,11.03
2019-03-18T12:12:44.972Z,6.30
2019-03-18T12:15:13.717Z,9.57
2019-03-18T12:17:42.505Z,13.00
2019-03-18T12:20:23.513Z,8.53
2019-03-18T12:22:42.139Z,5.57
2019-03-18T12:25:11.083Z,8.57
2019-03-18T12:27:39.217Z,7.00
2019-03-18T12:30:11.755Z,7.27
2019-03-18T12:32:40.581Z,7.93
2019-03-18T12:35:09.431Z,7.83
2019-03-18T12:37:37.891Z,8.63
2019-03-18T12:40:07.867Z,11.40
2019-03-18T12:42:35.823Z,10.83
2019-03-18T12:45:05.111Z,10.00
2019-03-18T12:47:33.125Z,19.80
2019-03-18T12:50:01.094Z,16.60
2019-03-18T12:52:29.131Z,8.33
2019-03-18T12:54:57.143Z,6.80
2019-03-18T12:57:37.654Z,8.03
2019-03-18T13:00:08.830Z,6.43
2019-03-18T13:02:37.175Z,7.53
2019-03-18T13:05:06.193Z,9.60
2019-03-18T13:07:34.303Z,10.07
2019-03-18T13:10:02.257Z,8.80
2019-03-18T13:12:30.171Z,11.07
2019-03-18T13:14:58.202Z,13.33
2019-03-18T13:17:26.222Z,9.70
2019-03-18T13:19:54.217Z,17.20
2019-03-18T13:22:22.239Z,16.00
2019-03-18T13:24:50.787Z,17.80
2019-03-18T13:27:18.747Z,14.37
2019-03-18T13:29:46.746Z,14.90
2019-03-18T13:32:15.179Z,12.87
2019-03-18T13:34:43.099Z,12.43
2019-03-18T13:37:10.953Z,10.77
2019-03-18T13:39:38.875Z,12.27
2019-03-18T13:42:06.722Z,10.77
2019-03-18T13:44:34.699Z,15.73
2019-03-18T13:47:03.344Z,16.17
2019-03-18T13:49:32.024Z,14.33
2019-03-18T13:52:00.766Z,12.07
2019-03-18T13:54:32.257Z,7.73
2019-03-18T13:56:59.839Z,9.53
2019-03-18T13:59:34.692Z,9.03
2019-03-18T14:02:03.455Z,8.70
2019-03-18T14:04:32.430Z,6.10
2019-03-18T14:07:01.262Z,7.10
2019-03-18T14:09:29.908Z,7.50
2019-03-18T14:11:58.291Z,5.87
2019-03-18T14:14:27.111Z,6.60
2019-03-18T14:16:55.756Z,4.50
2019-03-18T14:19:24.442Z,7.30
2019-03-18T14:21:53.162Z,6.43
2019-03-18T14:24:22.039Z,9.10
2019-03-18T14:26:50.700Z,7.03
2019-03-18T14:29:19.675Z,5.93
2019-03-18T14:31:48.478Z,11.33
2019-03-18T14:34:16.873Z,7.30
2019-03-18T14:36:45.685Z,6.87
2019-03-18T14:39:14.127Z,7.83
2019-03-18T14:41:42.962Z,6.17
2019-03-18T14:44:11.767Z,11.13
2019-03-18T14:46:40.404Z,7.03
2019-03-18T14:49:09.095Z,7.40
2019-03-18T14:51:45.763Z,9.80
2019-03-18T14:54:08.207Z,6.60
2019-03-18T14:56:36.566Z,8.13
2019-03-18T14:59:05.192Z,6.53
2019-03-18T15:01:40.290Z,8.30
2019-03-18T15:04:09.010Z,6.63
2019-03-18T15:06:37.647Z,6.53
2019-03-18T15:09:07.540Z,5.40
2019-03-18T15:11:35.866Z,8.30
2019-03-18T15:14:04.534Z,4.70
2019-03-18T15:16:33.218Z,6.33
2019-03-18T15:19:01.934Z,5.30
2019-03-18T15:21:30.586Z,6.43
2019-03-18T15:23:59.075Z,5.03
2019-03-18T15:26:27.585Z,5.43
2019-03-18T15:28:56.150Z,4.63
2019-03-18T15:31:24.918Z,8.53
2019-03-18T15:33:53.843Z,4.87
2019-03-18T15:36:22.515Z,5.43
2019-03-18T15:38:51.005Z,3.40
2019-03-18T15:41:19.515Z,6.20
2019-03-18T15:43:48.221Z,4.23
2019-03-18T15:46:16.745Z,7.03
2019-03-18T15:48:45.360Z,7.50
2019-03-18T15:51:14.202Z,8.33
2019-03-18T15:53:43.042Z,7.17
2019-03-18T15:56:13.068Z,6.67
2019-03-18T15:58:41.690Z,7.27
2019-03-18T16:01:10.378Z,8.20
2019-03-18T16:03:42.851Z,6.90
2019-03-18T16:06:11.856Z,6.87
2019-03-18T16:08:40.310Z,5.10
2019-03-18T16:11:09.050Z,6.77
2019-03-18T16:13:37.688Z,7.10
2019-03-18T16:16:06.386Z,5.90
2019-03-18T16:18:35.100Z,5.17
2019-03-18T16:21:03.952Z,7.73
2019-03-18T16:23:44.748Z,5.13
2019-03-18T16:26:13.410Z,5.97
2019-03-18T16:28:42.097Z,5.30
2019-03-18T16:31:10.809Z,6.70
2019-03-18T16:33:40.498Z,5.50
2019-03-18T16:36:09.182Z,6.67
2019-03-18T16:38:38.098Z,5.93
2019-03-18T16:41:06.753Z,5.87
2019-03-18T16:43:35.442Z,7.10
2019-03-18T16:46:03.865Z,6.90
2019-03-18T16:48:33.212Z,5.27
2019-03-18T16:51:01.938Z,8.07
2019-03-18T16:53:30.617Z,6.97
2019-03-18T16:55:58.981Z,5.63
2019-03-18T16:58:27.775Z,5.27
2019-03-18T17:00:56.270Z,6.80
2019-03-18T17:03:24.636Z,5.67
2019-03-18T17:05:54.422Z,7.80
2019-03-18T17:08:23.134Z,7.07
2019-03-18T17:10:54.029Z,9.10
2019-03-18T17:13:22.781Z,5.37
2019-03-18T17:15:51.214Z,7.57
2019-03-18T17:18:19.921Z,7.30
2019-03-18T17:20:48.636Z,8.13
2019-03-18T17:23:18.096Z,4.43
2019-03-18T17:25:46.473Z,5.97
2019-03-18T17:28:15.092Z,6.57
2019-03-18T17:30:43.753Z,10.20
2019-03-18T17:33:12.239Z,11.80
2019-03-18T17:35:40.755Z,9.30
2019-03-18T17:38:09.443Z,5.00
2019-03-18T17:40:38.128Z,6.10
2019-03-18T17:43:07.617Z,5.60
2019-03-18T17:45:36.457Z,11.47
2019-03-18T17:48:05.145Z,5.77
2019-03-18T17:50:33.579Z,5.13
2019-03-18T17:53:03.749Z,6.93
2019-03-18T17:55:32.955Z,6.47
2019-03-18T17:58:01.460Z,5.07
2019-03-18T18:00:36.458Z,8.90
2019-03-18T18:03:04.971Z,5.60
2019-03-18T18:05:33.414Z,6.37
2019-03-18T18:08:01.997Z,5.13
2019-03-18T18:10:30.984Z,4.57
2019-03-18T18:12:59.767Z,5.37
2019-03-18T18:15:28.675Z,5.23
2019-03-18T18:17:57.396Z,6.87
2019-03-18T18:20:27.420Z,6.30
2019-03-18T18:23:14.231Z,7.13
2019-03-18T18:25:50.269Z,6.43
2019-03-18T18:28:35.141Z,4.87
2019-03-18T18:31:31.612Z,5.40
2019-03-18T18:34:02.202Z,5.73
2019-03-18T18:36:32.618Z,5.50
2019-03-18T18:39:02.206Z,6.40
2019-03-18T18:41:32.170Z,5.73
2019-03-18T18:44:00.813Z,5.33
2019-03-18T18:46:29.834Z,6.20
2019-03-18T18:48:58.645Z,4.70
2019-03-18T18:51:27.477Z,6.27
2019-03-18T18:53:56.377Z,5.97
2019-03-18T18:56:24.922Z,6.97
2019-03-18T18:58:54.464Z,6.83
2019-03-18T19:01:28.874Z,5.87
2019-03-18T19:03:57.369Z,8.53
2019-03-18T19:06:26.164Z,6.87
2019-03-18T19:08:56.311Z,6.93
2019-03-18T19:11:25.984Z,6.93
2019-03-18T19:13:54.391Z,7.43
2019-03-18T19:16:23.599Z,6.70
2019-03-18T19:18:52.252Z,7.87
2019-03-18T19:21:20.965Z,7.87
2019-03-18T19:23:50.020Z,7.47
2019-03-18T19:26:18.634Z,7.20
2019-03-18T19:28:47.455Z,7.13
2019-03-18T19:31:16.137Z,6.63
2019-03-18T19:33:44.818Z,6.40
2019-03-18T19:36:13.642Z,8.87
2019-03-18T19:38:42.300Z,6.70
2019-03-18T19:41:10.840Z,7.63
2019-03-18T19:43:39.527Z,8.83
2019-03-18T19:46:09.683Z,8.70
2019-03-18T19:48:38.659Z,7.73
2019-03-18T19:51:07.204Z,7.77
2019-03-18T19:53:35.690Z,8.77
2019-03-18T19:56:04.372Z,7.87
2019-03-18T19:58:32.883Z,8.13
2019-03-18T20:01:01.592Z,7.20
2019-03-18T20:03:33.298Z,10.67
2019-03-18T20:06:02.032Z,9.97
2019-03-18T20:08:30.885Z,8.00
2019-03-18T20:10:59.466Z,9.90
2019-03-18T20:13:28.295Z,8.77
2019-03-18T20:15:56.991Z,8.83
2019-03-18T20:18:25.610Z,10.97
2019-03-18T20:20:56.794Z,8.60
2019-03-18T20:23:24.880Z,8.27
2019-03-18T20:25:53.542Z,10.27
2019-03-18T20:28:22.498Z,9.47
2019-03-18T20:30:50.994Z,7.30
2019-03-18T20:33:19.773Z,7.97
2019-03-18T20:35:48.518Z,8.23
2019-03-18T20:38:17.059Z,9.73
2019-03-18T20:40:46.044Z,11.57
2019-03-18T20:43:14.765Z,10.13
2019-03-18T20:45:43.316Z,10.33
2019-03-18T20:48:12.114Z,10.43
2019-03-18T20:50:40.813Z,9.10
2019-03-18T20:53:09.475Z,8.73
2019-03-18T20:55:39.199Z,9.10
2019-03-18T20:58:07.773Z,8.73
2019-03-18T21:00:36.765Z,7.40
2019-03-18T21:03:05.451Z,9.03
2019-03-18T21:05:34.183Z,7.97
2019-03-18T21:08:02.819Z,8.97
2019-03-18T21:10:31.511Z,9.13
2019-03-18T21:13:00.422Z,8.67
2019-03-18T21:15:29.395Z,8.37
2019-03-18T21:17:57.965Z,7.87
2019-03-18T21:20:26.692Z,9.00
2019-03-18T21:22:54.962Z,9.53
2019-03-18T21:25:23.822Z,8.27
2019-03-18T21:27:52.768Z,9.53
2019-03-18T21:30:21.586Z,9.23
2019-03-18T21:32:50.232Z,10.57
2019-03-18T21:35:18.999Z,11.87
2019-03-18T21:37:47.645Z,11.30
2019-03-18T21:40:16.329Z,9.90
2019-03-18T21:42:44.857Z,12.40
2019-03-18T21:45:15.071Z,10.63
2019-03-18T21:47:43.525Z,11.27
2019-03-18T21:50:12.864Z,10.23
2019-03-18T21:52:41.593Z,10.93
2019-03-18T21:55:10.783Z,8.97
2019-03-18T21:57:39.623Z,8.67
2019-03-18T22:00:09.201Z,8.87
2019-03-18T22:02:37.478Z,10.63
2019-03-18T22:05:06.397Z,9.07
2019-03-18T22:07:35.154Z,11.17
2019-03-18T22:10:04.469Z,9.47
2019-03-18T22:12:33.518Z,13.90
2019-03-18T22:15:04.585Z,9.90
2019-03-18T22:17:33.183Z,9.03
2019-03-18T22:20:01.856Z,11.73
2019-03-18T22:22:30.537Z,13.23
2019-03-18T22:24:59.233Z,12.20
2019-03-18T22:27:27.904Z,11.27
2019-03-18T22:29:56.782Z,15.07
2019-03-18T22:32:25.411Z,14.70
2019-03-18T22:34:54.139Z,13.77
2019-03-18T22:37:22.858Z,11.80
2019-03-18T22:39:51.559Z,11.70
2019-03-18T22:42:20.235Z,9.43
2019-03-18T22:44:49.219Z,10.17
2019-03-18T22:47:17.902Z,11.80
2019-03-18T22:49:46.677Z,9.47
2019-03-18T22:52:15.370Z,11.77
2019-03-18T22:54:43.850Z,11.17
2019-03-18T22:57:12.538Z,11.33
2019-03-18T22:59:41.224Z,10.40
2019-03-18T23:02:10.034Z,11.87
2019-03-18T23:04:38.496Z,11.37
2019-03-18T23:07:07.280Z,12.17
2019-03-18T23:09:37.085Z,11.67
2019-03-18T23:12:05.865Z,10.03
2019-03-18T23:14:34.565Z,10.40
2019-03-18T23:17:09.121Z,10.10
2019-03-18T23:19:37.658Z,9.97
2019-03-18T23:22:06.345Z,10.47
2019-03-18T23:24:34.765Z,10.27
2019-03-18T23:27:03.525Z,10.83
2019-03-18T23:29:32.202Z,12.87
2019-03-18T23:32:00.918Z,12.17
2019-03-18T23:34:29.576Z,13.53
2019-03-18T23:36:58.261Z,11.07
2019-03-18T23:39:26.855Z,13.60
2019-03-18T23:41:55.325Z,10.33
2019-03-18T23:44:23.818Z,10.77
2019-03-18T23:46:52.618Z,12.07
2019-03-18T23:49:21.063Z,13.43
2019-03-18T23:51:49.782Z,11.77
2019-03-18T23:54:18.478Z,12.00
2019-03-18T23:56:46.821Z,11.33
2019-03-18T23:59:15.310Z,12.87
